Terminal Aerodrome Forecast
Issued by NWS

Home | Current Version | Previous Version | Text Only | Print | Product List | Glossary On
Versions: 1 2 3 4 5 6 7 8 9 10 11 12
000
FTUS46 KHNX 270537
TAFBFL
TAF
KBFL 270537Z 2706/2806 04003KT P6SM FEW250
     FM270900 12006KT P6SM FEW100 SCT200
     FM271500 VRB03KT P6SM SCT100 BKN200
     FM272100 30006KT P6SM SCT050 BKN100
     FM280300 33010KT P6SM OVC050 PROB30 2803/2806 P6SM -RA OVC040=

USA.gov is the U.S. government's official web portal to all federal, state and local government web resources and services.